Time;durP1;ratioP1;P1;durP2;ratioP2;P2;SDS_P1;SDS_P2;PMS_P1;PMS_P2;Temp;Humidity;BMP_temperature;BMP_pressure;BME280_temperature;BME280_humidity;BME280_pressure;Samples;Min_cycle;Max_cycle;Signal;HPM_P1;HPM_P2
2022/01/21 00:01:08;;;;;;;14.70;2.50;;;4.10;99.90;;;;;;4768847;30;20138;-84
2022/01/21 00:03:35;;;;;;;17.67;2.58;;;3.30;99.90;;;;;;4752848;30;20093;-83
2022/01/21 00:06:01;;;;;;;17.75;2.50;;;4.40;99.90;;;;;;4797650;29;20068;-84
2022/01/21 00:08:27;;;;;;;16.45;2.60;;;5.90;99.90;;;;;;4782435;30;20052;-84
2022/01/21 00:10:53;;;;;;;16.15;2.95;;;4.20;99.90;;;;;;4778076;30;20051;-83
2022/01/21 00:13:33;;;;;;;17.10;2.80;;;3.90;99.90;;;;;;4783685;30;20063;-84
2022/01/21 00:16:00;;;;;;;22.23;4.05;;;7.20;99.90;;;;;;4767654;30;20467;-83
2022/01/21 00:18:26;;;;;;;24.73;3.22;;;6.90;99.90;;;;;;4766864;30;20059;-84
2022/01/21 00:31:49;;;;;;;17.55;2.97;;;4.50;99.90;;;;;;4786055;30;20051;-84
2022/01/21 00:34:15;;;;;;;21.20;4.00;;;5.00;99.90;;;;;;4788115;29;20066;-84
2022/01/21 00:36:40;;;;;;;12.75;2.95;;;4.60;99.90;;;;;;4773360;30;20078;-84
2022/01/21 00:39:06;;;;;;;19.10;2.92;;;7.20;99.90;;;;;;4787936;29;20083;-83
2022/01/21 00:41:38;;;;;;;17.33;2.92;;;5.10;99.90;;;;;;4787871;30;20059;-84
2022/01/21 00:44:04;;;;;;;19.88;2.95;;;5.90;99.90;;;;;;4777770;30;20511;-83
2022/01/21 00:46:29;;;;;;;6.85;1.88;;;4.90;99.90;;;;;;4785366;29;20051;-83
2022/01/21 00:48:55;;;;;;;9.00;1.52;;;7.80;99.90;;;;;;4787717;30;20054;-84
2022/01/21 00:51:21;;;;;;;13.30;2.05;;;5.80;99.90;;;;;;4765615;30;20059;-83
2022/01/21 00:53:47;;;;;;;11.88;1.83;;;7.40;99.90;;;;;;4785108;29;20051;-84
2022/01/21 00:56:13;;;;;;;9.68;1.70;;;7.10;99.90;;;;;;4788232;30;20054;-84
2022/01/21 00:58:39;;;;;;;18.17;2.13;;;4.90;99.90;;;;;;4788145;30;20047;-84
2022/01/21 01:01:05;;;;;;;12.10;1.95;;;5.60;99.90;;;;;;4787978;30;20047;-84
2022/01/21 01:03:30;;;;;;;15.55;2.67;;;3.90;99.90;;;;;;4789046;29;20077;-84
2022/01/21 01:05:56;;;;;;;12.57;2.50;;;3.50;99.90;;;;;;4789276;29;20060;-83
2022/01/21 01:08:22;;;;;;;9.88;2.05;;;5.00;99.90;;;;;;4787926;30;20055;-84
2022/01/21 01:21:27;;;;;;;14.50;2.33;;;4.40;99.90;;;;;;4787073;29;20083;-84
2022/01/21 01:27:35;;;;;;;12.77;2.17;;;4.90;99.90;;;;;;4788957;29;20090;-83
2022/01/21 01:29:32;;;;;;;5.00;1.48;;;5.10;99.90;;;;;;4787792;30;20084;-83
2022/01/21 01:31:58;;;;;;;16.02;2.00;;;6.30;99.90;;;;;;4787205;30;20055;-83
2022/01/21 01:34:23;;;;;;;11.55;1.77;;;6.70;99.90;;;;;;4813451;24;20063;-83
2022/01/21 01:36:49;;;;;;;6.03;1.88;;;6.20;99.90;;;;;;4811813;29;20078;-82
2022/01/21 01:39:29;;;;;;;13.90;2.47;;;6.20;99.90;;;;;;4804241;29;20445;-83
2022/01/21 01:42:15;;;;;;;10.85;2.33;;;4.90;99.90;;;;;;4772466;30;20055;-82
2022/01/21 01:50:29;;;;;;;22.58;3.25;;;6.50;99.90;;;;;;4787494;30;20059;-82
2022/01/21 01:52:55;;;;;;;24.48;3.00;;;4.60;99.90;;;;;;4786443;30;20055;-83
2022/01/21 01:55:21;;;;;;;14.98;2.58;;;4.80;99.90;;;;;;4783649;30;20109;-82
2022/01/21 01:57:47;;;;;;;14.32;2.97;;;4.40;99.90;;;;;;4769832;30;20439;-83
2022/01/21 02:00:13;;;;;;;9.43;1.90;;;4.40;99.90;;;;;;4801986;29;20100;-82
2022/01/21 02:02:39;;;;;;;20.85;2.40;;;4.40;99.90;;;;;;4786990;30;20047;-82
2022/01/21 02:05:05;;;;;;;15.68;2.40;;;4.60;99.90;;;;;;4801443;29;20057;-83
2022/01/21 02:07:30;;;;;;;14.75;2.33;;;4.70;99.90;;;;;;4787277;29;20454;-82
2022/01/21 02:09:56;;;;;;;16.35;3.10;;;4.80;99.90;;;;;;4787086;30;20043;-83
2022/01/21 02:12:22;;;;;;;21.65;2.95;;;4.80;99.90;;;;;;4786331;30;20071;-82
2022/01/21 02:14:51;;;;;;;11.20;2.00;;;6.30;99.90;;;;;;4801889;29;20138;-82
2022/01/21 02:22:35;;;;;;;11.48;2.53;;;4.30;99.90;;;;;;4786960;30;20061;-82
2022/01/21 02:25:15;;;;;;;17.70;2.28;;;4.40;99.90;;;;;;4786125;30;20055;-83
2022/01/21 02:27:42;;;;;;;16.70;2.47;;;5.60;99.90;;;;;;4768702;30;20497;-82
2022/01/21 02:30:08;;;;;;;13.95;2.00;;;6.60;99.90;;;;;;4768922;30;20500;-82
2022/01/21 02:32:34;;;;;;;13.10;2.13;;;4.90;99.90;;;;;;4768563;30;20382;-82
2022/01/21 02:34:59;;;;;;;8.00;1.98;;;4.80;99.90;;;;;;4782751;30;20124;-82
2022/01/21 02:37:25;;;;;;;13.15;2.45;;;5.60;99.90;;;;;;4768816;30;20143;-82
2022/01/21 02:39:51;;;;;;;10.65;2.08;;;4.60;99.90;;;;;;4768160;30;20047;-82
2022/01/21 02:42:17;;;;;;;24.45;2.95;;;4.80;99.90;;;;;;4783669;30;20063;-82
2022/01/21 02:44:43;;;;;;;19.80;2.50;;;5.50;99.90;;;;;;4768125;30;20101;-82
2022/01/21 02:47:09;;;;;;;19.17;3.20;;;4.30;99.90;;;;;;4768232;30;20096;-82
2022/01/21 02:49:35;;;;;;;20.40;3.42;;;4.70;99.90;;;;;;4785458;30;20126;-83
2022/01/21 02:52:03;;;;;;;19.52;2.65;;;6.30;99.90;;;;;;4800808;29;20113;-82
2022/01/21 02:54:31;;;;;;;15.82;2.80;;;5.10;99.90;;;;;;4786095;30;20399;-82
2022/01/21 02:56:58;;;;;;;13.27;2.13;;;5.10;99.90;;;;;;4797762;29;20505;-82
2022/01/21 02:59:25;;;;;;;15.18;2.80;;;6.40;99.90;;;;;;4800842;29;20044;-83
2022/01/21 03:01:50;;;;;;;16.40;2.42;;;6.70;99.90;;;;;;4800457;29;20529;-82
2022/01/21 03:04:27;;;;;;;18.17;3.13;;;4.70;99.90;;;;;;4786050;30;20047;-82
2022/01/21 03:06:53;;;;;;;18.88;2.38;;;6.50;99.90;;;;;;4786134;30;20416;-82
2022/01/21 03:09:18;;;;;;;15.95;2.45;;;6.60;99.90;;;;;;4786174;30;20059;-82
2022/01/21 03:11:44;;;;;;;18.77;2.42;;;5.00;99.90;;;;;;4800456;29;20589;-82
2022/01/21 03:14:10;;;;;;;17.13;2.92;;;4.50;99.90;;;;;;4785625;30;20047;-82
2022/01/21 03:16:35;;;;;;;17.52;2.33;;;5.10;99.90;;;;;;4785928;30;20389;-82
2022/01/21 03:19:01;;;;;;;16.50;2.35;;;5.20;99.90;;;;;;4801203;29;20082;-82
2022/01/21 03:21:27;;;;;;;21.65;3.28;;;6.20;99.90;;;;;;4800304;29;20104;-82
2022/01/21 03:23:55;;;;;;;24.30;3.15;;;4.40;99.90;;;;;;4800043;29;20056;-82
2022/01/21 03:26:24;;;;;;;21.95;2.22;;;6.10;99.90;;;;;;4785728;30;20055;-82
2022/01/21 03:28:53;;;;;;;14.50;2.67;;;5.00;99.90;;;;;;4785721;30;20108;-82
2022/01/21 03:31:19;;;;;;;18.17;2.42;;;6.40;99.90;;;;;;4785305;30;20051;-82
2022/01/21 03:33:46;;;;;;;14.82;2.25;;;4.80;99.90;;;;;;4783245;30;20075;-83
2022/01/21 03:36:12;;;;;;;11.23;2.65;;;5.10;99.90;;;;;;4797593;29;20048;-83
2022/01/21 03:38:38;;;;;;;14.95;2.15;;;4.30;99.90;;;;;;4797410;29;20099;-82
2022/01/21 03:41:05;;;;;;;13.80;2.53;;;5.70;99.90;;;;;;4799515;29;20052;-83
2022/01/21 03:43:31;;;;;;;13.63;2.45;;;4.00;99.90;;;;;;4800413;29;20120;-82
2022/01/21 03:45:57;;;;;;;15.63;2.70;;;4.80;99.90;;;;;;4800413;29;20408;-83
2022/01/21 03:48:23;;;;;;;16.70;2.47;;;4.10;99.90;;;;;;4770719;30;20088;-83
2022/01/21 03:50:49;;;;;;;10.10;2.00;;;4.70;99.90;;;;;;4767871;30;20405;-83
2022/01/21 03:53:15;;;;;;;21.08;2.25;;;4.70;99.90;;;;;;4779410;30;20135;-82
2022/01/21 03:55:41;;;;;;;11.38;1.90;;;4.30;99.90;;;;;;4800371;29;20535;-83
2022/01/21 03:58:09;;;;;;;15.45;2.60;;;6.00;99.90;;;;;;4785808;29;20039;-83
2022/01/21 04:00:40;;;;;;;18.95;2.60;;;4.50;99.90;;;;;;4787453;30;20048;-82
2022/01/21 04:03:06;;;;;;;14.57;2.13;;;4.20;99.90;;;;;;4773678;30;20051;-82
2022/01/21 04:05:32;;;;;;;16.20;2.03;;;4.10;99.90;;;;;;4803718;29;20066;-82
2022/01/21 04:07:58;;;;;;;11.98;2.40;;;4.30;99.90;;;;;;4788899;30;20051;-82
2022/01/21 04:10:24;;;;;;;16.73;1.85;;;4.50;99.90;;;;;;4788940;30;20070;-83
2022/01/21 04:12:50;;;;;;;20.65;2.47;;;4.30;99.90;;;;;;4801306;29;20066;-82
2022/01/21 04:15:16;;;;;;;18.77;2.30;;;4.40;99.90;;;;;;4771819;30;20044;-83
2022/01/21 04:17:42;;;;;;;17.77;2.55;;;4.10;99.90;;;;;;4788919;30;20541;-82
2022/01/21 04:20:11;;;;;;;18.85;2.60;;;4.30;99.90;;;;;;4803718;29;20075;-83
2022/01/21 04:22:37;;;;;;;19.05;2.90;;;4.10;99.90;;;;;;4773502;30;20500;-82
2022/01/21 04:25:04;;;;;;;17.73;2.50;;;4.10;99.90;;;;;;4799899;29;20052;-83
2022/01/21 04:27:30;;;;;;;18.77;2.17;;;4.00;99.90;;;;;;4777528;30;20052;-83
2022/01/21 04:29:56;;;;;;;25.08;3.95;;;6.20;99.90;;;;;;4786459;30;20093;-82
2022/01/21 04:32:21;;;;;;;13.43;2.35;;;5.00;99.90;;;;;;4778173;30;20097;-82
2022/01/21 04:34:47;;;;;;;16.08;2.20;;;5.00;99.90;;;;;;4769828;30;20070;-84
2022/01/21 04:37:15;;;;;;;17.52;2.20;;;5.90;99.90;;;;;;4803696;29;20672;-82
2022/01/21 04:39:52;;;;;;;14.52;2.78;;;4.60;99.90;;;;;;4803247;29;20416;-83
2022/01/21 04:47:28;;;;;;;20.63;2.33;;;5.30;99.90;;;;;;4785141;30;20051;-82
2022/01/21 04:49:54;;;;;;;20.50;4.03;;;6.90;99.90;;;;;;4774672;30;20148;-82
2022/01/21 04:52:21;;;;;;;17.55;2.47;;;5.40;99.90;;;;;;4785272;30;20561;-83
2022/01/21 04:54:47;;;;;;;17.23;2.58;;;5.30;99.90;;;;;;4782827;29;20060;-82
2022/01/21 04:57:13;;;;;;;24.48;3.05;;;5.50;99.90;;;;;;4802257;29;20115;-83
2022/01/21 04:59:39;;;;;;;21.02;2.60;;;6.00;99.90;;;;;;4773333;30;20447;-82
2022/01/21 05:02:05;;;;;;;11.73;1.88;;;6.60;99.90;;;;;;4788063;30;20053;-82
2022/01/21 05:04:31;;;;;;;14.40;2.20;;;5.40;99.90;;;;;;4788133;30;20047;-82
2022/01/21 05:06:58;;;;;;;17.65;2.35;;;5.00;99.90;;;;;;4785316;30;20049;-82
2022/01/21 05:09:30;;;;;;;6.95;1.90;;;5.00;99.90;;;;;;4784874;30;20523;-82
2022/01/21 05:11:57;;;;;;;8.23;2.08;;;4.90;99.90;;;;;;4798683;29;20087;-82
2022/01/21 05:14:27;;;;;;;18.15;2.58;;;5.00;99.90;;;;;;4770059;30;20099;-82
2022/01/21 05:17:01;;;;;;;16.88;2.72;;;4.80;99.90;;;;;;4754848;30;20230;-82
2022/01/21 05:19:27;;;;;;;16.33;2.05;;;5.40;99.90;;;;;;4775615;30;20054;-83
2022/01/21 05:21:52;;;;;;;20.88;2.40;;;5.20;99.90;;;;;;4780121;30;20051;-82
2022/01/21 05:24:20;;;;;;;17.75;2.85;;;4.90;99.90;;;;;;4802850;29;20087;-82
2022/01/21 05:26:55;;;;;;;16.27;2.33;;;5.20;99.90;;;;;;4782688;30;20681;-82
2022/01/21 05:29:25;;;;;;;16.67;2.72;;;5.10;99.90;;;;;;4783371;30;20115;-82
2022/01/21 05:31:52;;;;;;;16.38;2.70;;;6.90;99.90;;;;;;4765939;30;20500;-82
2022/01/21 05:34:18;;;;;;;19.75;2.65;;;4.80;99.90;;;;;;4785891;30;20051;-82
2022/01/21 05:36:44;;;;;;;17.45;2.22;;;5.50;99.90;;;;;;4787323;30;20058;-83
2022/01/21 05:39:12;;;;;;;22.10;2.80;;;4.30;99.90;;;;;;4802246;29;20101;-82
2022/01/21 05:41:39;;;;;;;15.27;2.45;;;5.00;99.90;;;;;;4802381;29;20078;-82
2022/01/21 05:44:13;;;;;;;25.38;2.90;;;6.00;99.90;;;;;;4786381;29;20555;-82
2022/01/21 05:46:54;;;;;;;22.92;2.67;;;4.80;99.90;;;;;;4800150;29;20421;-82
2022/01/21 05:49:21;;;;;;;24.92;3.78;;;5.20;99.90;;;;;;4801630;29;20063;-82
2022/01/21 05:51:46;;;;;;;17.10;3.55;;;4.30;99.90;;;;;;4787493;30;20055;-83
2022/01/21 05:54:13;;;;;;;18.98;3.80;;;5.20;99.90;;;;;;4787194;30;20052;-82
2022/01/21 05:56:40;;;;;;;30.70;3.40;;;5.00;99.90;;;;;;4777561;30;20051;-83
2022/01/21 05:59:07;;;;;;;22.13;3.85;;;6.20;99.90;;;;;;4753967;30;20381;-83
2022/01/21 06:01:34;;;;;;;26.25;3.50;;;4.80;99.90;;;;;;4785458;29;20139;-82
2022/01/21 06:04:01;;;;;;;22.02;3.15;;;4.60;99.90;;;;;;4783087;30;20051;-82
2022/01/21 06:06:28;;;;;;;22.30;2.90;;;5.40;99.90;;;;;;4786974;29;20089;-82
2022/01/21 06:08:53;;;;;;;25.42;2.95;;;6.20;99.90;;;;;;4786188;30;20104;-83
2022/01/21 06:11:19;;;;;;;23.48;3.15;;;5.50;99.90;;;;;;4771908;30;20055;-83
2022/01/21 06:13:46;;;;;;;21.05;3.28;;;5.30;99.90;;;;;;4792099;29;20075;-83
2022/01/21 06:16:12;;;;;;;26.20;3.30;;;4.50;99.90;;;;;;4771378;30;20059;-83
2022/01/21 06:18:38;;;;;;;23.02;3.60;;;5.10;99.90;;;;;;4758716;30;20404;-82
2022/01/21 06:21:03;;;;;;;23.40;3.35;;;6.50;99.90;;;;;;4786687;29;20051;-82
2022/01/21 06:23:29;;;;;;;35.53;3.58;;;4.90;99.90;;;;;;4786163;30;20058;-83
2022/01/21 06:25:55;;;;;;;27.23;2.60;;;4.70;99.90;;;;;;4787036;30;20051;-82
2022/01/21 06:28:21;;;;;;;23.73;3.60;;;5.40;99.90;;;;;;4765017;30;20059;-82
2022/01/21 06:30:49;;;;;;;34.70;3.53;;;5.50;99.90;;;;;;4786036;30;20051;-82
2022/01/21 06:33:14;;;;;;;32.55;3.75;;;4.40;99.90;;;;;;4786062;30;20155;-83
2022/01/21 06:35:40;;;;;;;28.95;3.20;;;4.30;99.90;;;;;;4801574;29;20145;-82
2022/01/21 06:38:06;;;;;;;27.27;3.50;;;4.80;99.90;;;;;;4787855;29;20055;-82
2022/01/21 06:40:32;;;;;;;32.25;3.75;;;4.30;99.90;;;;;;4766845;30;20054;-82
2022/01/21 06:43:02;;;;;;;33.95;3.63;;;4.30;99.90;;;;;;4801258;29;20063;-82
2022/01/21 06:45:28;;;;;;;30.83;3.75;;;5.20;99.90;;;;;;4786636;30;20124;-83
2022/01/21 06:47:54;;;;;;;26.17;3.83;;;4.40;99.90;;;;;;4771526;30;20068;-82
2022/01/21 06:50:20;;;;;;;31.10;3.60;;;5.20;99.90;;;;;;4785965;30;20051;-82
2022/01/21 06:52:45;;;;;;;33.58;4.07;;;5.10;99.90;;;;;;4785903;30;20047;-83
2022/01/21 06:55:11;;;;;;;33.95;3.97;;;5.00;99.90;;;;;;4786308;30;20055;-83
2022/01/21 06:57:39;;;;;;;27.73;4.45;;;5.80;99.90;;;;;;4785937;30;20058;-83
2022/01/21 07:00:08;;;;;;;34.42;4.80;;;5.70;99.90;;;;;;4785828;30;20052;-83
2022/01/21 07:02:35;;;;;;;32.15;4.20;;;5.90;99.90;;;;;;4769787;30;20420;-82
2022/01/21 07:05:02;;;;;;;21.50;3.65;;;5.70;99.90;;;;;;4786582;29;20043;-82
2022/01/21 07:07:28;;;;;;;30.67;3.80;;;5.70;99.90;;;;;;4785836;29;20096;-83
2022/01/21 07:09:55;;;;;;;31.15;3.20;;;6.50;99.90;;;;;;4786014;30;20047;-82
2022/01/21 07:12:21;;;;;;;32.70;4.28;;;7.30;99.90;;;;;;4800627;29;20047;-82
2022/01/21 07:14:47;;;;;;;30.50;3.83;;;6.80;99.90;;;;;;4796317;29;20059;-79
2022/01/21 07:17:12;;;;;;;35.55;3.63;;;6.20;99.90;;;;;;4784621;29;20070;-77
2022/01/21 07:19:38;;;;;;;22.13;3.40;;;6.20;99.90;;;;;;4773924;30;20131;-83
2022/01/21 07:22:04;;;;;;;32.40;3.90;;;5.40;99.90;;;;;;4786672;30;20453;-82
2022/01/21 07:24:30;;;;;;;28.17;3.85;;;6.00;99.90;;;;;;4785310;30;20109;-82
2022/01/21 07:26:56;;;;;;;29.65;3.65;;;6.10;99.90;;;;;;4786030;30;20048;-84
2022/01/21 07:29:22;;;;;;;35.33;4.15;;;5.90;99.90;;;;;;4781778;29;20086;-84
2022/01/21 07:31:53;;;;;;;36.25;4.38;;;6.90;99.90;;;;;;4753028;30;20083;-85
2022/01/21 07:34:19;;;;;;;28.00;4.28;;;5.90;99.90;;;;;;4780911;29;20115;-79
2022/01/21 07:36:45;;;;;;;27.20;3.75;;;5.90;99.90;;;;;;4800839;29;20436;-79
2022/01/21 07:39:11;;;;;;;16.63;2.45;;;5.50;99.90;;;;;;4785535;29;20113;-84
2022/01/21 07:41:37;;;;;;;19.63;2.50;;;6.40;99.90;;;;;;4784761;29;20047;-83
2022/01/21 07:44:02;;;;;;;12.35;2.35;;;7.50;99.90;;;;;;4770860;30;20062;-81
2022/01/21 07:46:28;;;;;;;21.60;3.03;;;6.50;99.90;;;;;;4786085;30;20054;-84
2022/01/21 07:48:56;;;;;;;21.27;2.92;;;7.40;99.90;;;;;;4764378;30;20134;-83
2022/01/21 07:51:22;;;;;;;15.45;2.80;;;7.70;99.90;;;;;;4785743;30;20138;-83
2022/01/21 07:53:48;;;;;;;16.67;2.83;;;6.40;99.90;;;;;;4778904;30;20156;-80
2022/01/21 07:56:14;;;;;;;23.45;3.25;;;6.60;99.90;;;;;;4777199;30;20106;-85
2022/01/21 07:58:40;;;;;;;20.95;2.63;;;6.10;99.90;;;;;;4768138;30;20086;-83
2022/01/21 08:01:05;;;;;;;19.35;3.50;;;5.90;99.90;;;;;;4776396;30;20078;-82
2022/01/21 08:03:31;;;;;;;19.40;2.55;;;6.40;99.90;;;;;;4778244;30;20048;-83
2022/01/21 08:05:57;;;;;;;23.63;3.25;;;5.90;99.90;;;;;;4800547;29;20070;-85
2022/01/21 08:08:24;;;;;;;28.98;3.53;;;6.30;99.90;;;;;;4770584;30;20048;-83
2022/01/21 08:10:50;;;;;;;20.33;3.45;;;6.50;99.90;;;;;;4800197;29;20066;-86
2022/01/21 08:13:15;;;;;;;23.58;3.00;;;6.50;99.90;;;;;;4800154;29;20047;-82
2022/01/21 08:15:41;;;;;;;24.92;4.35;;;5.80;99.90;;;;;;4791031;29;20051;-83
2022/01/21 08:18:09;;;;;;;25.90;2.97;;;6.60;99.90;;;;;;4791727;29;20051;-85
2022/01/21 08:20:35;;;;;;;18.58;2.78;;;7.00;99.90;;;;;;4767762;30;20052;-83
2022/01/21 08:23:01;;;;;;;21.60;3.10;;;6.20;99.90;;;;;;4774480;30;20074;-88
2022/01/21 08:25:27;;;;;;;15.25;2.63;;;7.50;99.90;;;;;;4774483;30;20047;-85
2022/01/21 08:27:52;;;;;;;14.95;2.72;;;6.80;99.90;;;;;;4760151;30;20067;-83
2022/01/21 08:30:18;;;;;;;21.45;2.70;;;8.30;99.90;;;;;;4784337;30;20073;-86
2022/01/21 08:32:44;;;;;;;17.88;3.05;;;7.80;99.90;;;;;;4760673;30;20054;-83
2022/01/21 08:35:10;;;;;;;23.55;3.45;;;6.70;99.90;;;;;;4788042;29;20051;-83
2022/01/21 08:37:36;;;;;;;32.75;4.05;;;7.00;99.90;;;;;;4780477;30;20044;-83
2022/01/21 08:40:03;;;;;;;23.90;3.38;;;6.30;99.90;;;;;;4770179;30;20473;-81
2022/01/21 08:42:28;;;;;;;28.35;3.72;;;6.90;99.90;;;;;;4784508;30;20055;-82
2022/01/21 08:44:54;;;;;;;19.40;2.90;;;7.10;99.90;;;;;;4772652;30;20565;-88
2022/01/21 08:47:22;;;;;;;25.67;3.70;;;7.20;99.90;;;;;;4784578;30;20063;-82
2022/01/21 08:49:49;;;;;;;29.38;4.45;;;8.60;99.90;;;;;;4776959;30;20055;-81
2022/01/21 08:52:25;;;;;;;22.63;4.22;;;8.40;99.90;;;;;;4778852;30;20048;-81
2022/01/21 08:54:51;;;;;;;31.42;4.68;;;6.80;99.90;;;;;;4787893;30;20051;-81
2022/01/21 08:57:18;;;;;;;27.88;4.20;;;7.60;99.90;;;;;;4799234;29;20047;-81
2022/01/21 08:59:44;;;;;;;17.60;2.67;;;6.40;99.90;;;;;;4799258;29;20050;-80
2022/01/21 09:02:10;;;;;;;24.00;3.22;;;7.10;99.90;;;;;;4784598;29;20070;-81
2022/01/21 09:04:36;;;;;;;25.48;3.17;;;8.10;99.90;;;;;;4798109;29;20125;-81
2022/01/21 09:07:03;;;;;;;19.80;3.22;;;6.50;99.90;;;;;;4802572;29;20096;-82
2022/01/21 09:09:29;;;;;;;23.00;3.25;;;6.80;99.90;;;;;;4802760;29;20051;-82
2022/01/21 09:11:59;;;;;;;14.95;2.85;;;7.20;99.90;;;;;;4782496;30;20143;-82
2022/01/21 09:14:27;;;;;;;17.55;3.15;;;7.10;99.90;;;;;;4787549;30;20103;-82
2022/01/21 09:16:54;;;;;;;11.50;2.75;;;7.40;99.90;;;;;;4770665;30;20059;-82
2022/01/21 09:19:19;;;;;;;19.40;2.90;;;7.30;99.90;;;;;;4798411;29;20400;-82
2022/01/21 09:21:51;;;;;;;17.67;3.03;;;6.90;99.90;;;;;;4787705;30;20122;-80
2022/01/21 09:24:17;;;;;;;16.92;2.20;;;7.40;99.90;;;;;;4787647;30;20052;-81
2022/01/21 09:26:43;;;;;;;20.92;3.20;;;7.00;99.90;;;;;;4788636;29;20055;-80
2022/01/21 09:29:08;;;;;;;11.57;2.42;;;7.10;99.90;;;;;;4779359;30;20062;-81
2022/01/21 09:31:34;;;;;;;13.73;3.10;;;8.80;99.90;;;;;;4771641;29;20416;-79
2022/01/21 09:34:00;;;;;;;12.40;2.67;;;7.50;99.90;;;;;;4784322;29;20067;-82
2022/01/21 09:36:26;;;;;;;22.70;4.18;;;7.10;99.90;;;;;;4784398;29;20054;-83
2022/01/21 09:38:52;;;;;;;19.05;2.80;;;8.90;99.90;;;;;;4787240;30;20055;-84
2022/01/21 09:41:19;;;;;;;13.88;2.47;;;8.70;99.90;;;;;;4772229;30;20083;-82
2022/01/21 09:43:47;;;;;;;10.45;2.10;;;7.70;99.90;;;;;;4783478;30;20059;-82
2022/01/21 09:46:14;;;;;;;22.63;3.58;;;7.90;99.90;;;;;;4768266;30;20564;-82
2022/01/21 09:48:53;;;;;;;21.08;2.95;;;7.20;99.90;;;;;;4783355;30;20090;-81
2022/01/21 09:51:20;;;;;;;15.25;2.42;;;7.00;99.90;;;;;;4787585;30;20476;-82
2022/01/21 09:53:46;;;;;;;13.57;2.35;;;7.00;99.90;;;;;;4801935;29;20089;-84
2022/01/21 09:56:14;;;;;;;17.30;2.72;;;7.00;99.90;;;;;;4802209;29;20074;-83
2022/01/21 09:58:45;;;;;;;20.92;3.33;;;7.50;99.90;;;;;;4770395;30;21094;-81
2022/01/21 10:01:11;;;;;;;26.30;2.92;;;9.40;99.90;;;;;;4782950;30;20126;-80
2022/01/21 10:03:42;;;;;;;17.95;2.67;;;9.20;99.90;;;;;;4787135;30;20142;-82
2022/01/21 10:06:10;;;;;;;19.45;2.72;;;7.50;99.90;;;;;;4802491;29;20134;-83
2022/01/21 10:08:41;;;;;;;18.95;2.42;;;8.00;99.90;;;;;;4787070;30;20054;-82
2022/01/21 10:11:07;;;;;;;22.63;3.38;;;8.50;99.90;;;;;;4789348;29;20055;-85
2022/01/21 10:13:34;;;;;;;28.10;3.58;;;8.70;99.90;;;;;;4801294;29;20104;-81
2022/01/21 10:16:02;;;;;;;14.02;2.70;;;8.70;99.90;;;;;;4787063;30;20047;-80
2022/01/21 10:18:28;;;;;;;14.55;2.58;;;9.10;99.90;;;;;;4782350;29;20131;-79
2022/01/21 10:21:06;;;;;;;21.90;3.30;;;7.10;99.90;;;;;;4764562;30;20508;-80
2022/01/21 10:23:35;;;;;;;18.63;2.97;;;7.80;99.90;;;;;;4773942;30;20618;-83
2022/01/21 10:26:09;;;;;;;17.15;3.47;;;7.70;99.90;;;;;;4783037;30;20055;-81
2022/01/21 10:28:37;;;;;;;14.98;2.50;;;8.20;99.90;;;;;;4771988;30;20047;-81
2022/01/21 10:31:16;;;;;;;11.95;2.55;;;8.70;99.90;;;;;;4788011;29;20166;-80
2022/01/21 10:33:48;;;;;;;13.60;2.63;;;8.20;99.90;;;;;;4783657;29;20055;-80
2022/01/21 10:36:21;;;;;;;11.95;1.98;;;7.40;99.90;;;;;;4786321;30;20073;-80
2022/01/21 10:38:50;;;;;;;12.45;2.22;;;7.30;99.90;;;;;;4776232;30;20051;-80
2022/01/21 10:41:18;;;;;;;24.27;3.05;;;7.30;99.90;;;;;;4765476;30;20398;-82
2022/01/21 10:44:01;;;;;;;19.15;2.30;;;8.00;99.90;;;;;;4801761;29;20488;-80
2022/01/21 10:46:27;;;;;;;11.98;2.20;;;8.50;99.90;;;;;;4786499;30;20063;-79
2022/01/21 10:49:06;;;;;;;17.20;2.60;;;7.90;99.90;;;;;;4786490;30;20066;-82
2022/01/21 10:51:35;;;;;;;13.00;2.83;;;7.20;99.90;;;;;;4779872;30;20065;-80
2022/01/21 10:54:12;;;;;;;17.02;3.03;;;7.60;99.90;;;;;;4778426;30;20088;-82
2022/01/21 10:56:38;;;;;;;14.77;2.03;;;7.50;99.90;;;;;;4780391;30;20503;-81
2022/01/21 10:59:04;;;;;;;13.93;2.20;;;7.80;99.90;;;;;;4771221;30;20138;-81
2022/01/21 11:01:30;;;;;;;15.88;2.78;;;8.00;99.90;;;;;;4764547;30;20093;-83
2022/01/21 11:04:03;;;;;;;12.50;2.13;;;7.50;99.90;;;;;;4780570;29;20109;-81
2022/01/21 11:06:46;;;;;;;14.82;2.63;;;8.30;99.90;;;;;;4766475;30;20066;-82
2022/01/21 11:09:21;;;;;;;21.95;3.75;;;7.60;99.90;;;;;;4783823;29;20055;-82
2022/01/21 11:12:06;;;;;;;27.88;3.33;;;7.80;99.90;;;;;;4785984;30;20058;-81
2022/01/21 11:14:34;;;;;;;21.42;4.60;;;7.70;99.90;;;;;;4791667;29;20051;-81
2022/01/21 11:17:08;;;;;;;16.05;2.90;;;8.30;99.90;;;;;;4783115;30;20051;-80
2022/01/21 11:19:35;;;;;;;23.27;2.70;;;8.40;99.90;;;;;;4779980;30;20055;-82
2022/01/21 11:22:04;;;;;;;22.77;3.30;;;7.80;99.90;;;;;;4782314;30;20055;-83
2022/01/21 11:24:31;;;;;;;25.48;4.25;;;8.10;99.90;;;;;;4775044;30;20051;-82
2022/01/21 11:27:09;;;;;;;14.68;2.95;;;7.70;99.90;;;;;;4781596;30;20043;-81
2022/01/21 11:29:35;;;;;;;15.23;2.95;;;7.80;99.90;;;;;;4800857;29;20051;-80
2022/01/21 11:32:03;;;;;;;27.42;3.90;;;7.70;99.90;;;;;;4785917;30;20055;-80
2022/01/21 11:34:29;;;;;;;22.70;3.10;;;8.90;99.90;;;;;;4800640;29;20128;-80
2022/01/21 11:36:56;;;;;;;22.77;3.22;;;9.00;99.90;;;;;;4781986;30;20060;-80
2022/01/21 11:39:24;;;;;;;25.48;3.47;;;7.60;99.90;;;;;;4770388;30;20405;-80
2022/01/21 11:41:54;;;;;;;23.90;3.70;;;8.30;99.90;;;;;;4786768;30;20083;-81
2022/01/21 11:44:22;;;;;;;26.77;4.03;;;8.10;99.90;;;;;;4785396;30;20055;-81
2022/01/21 11:49:35;;;;;;;25.50;3.42;;;8.60;99.90;;;;;;4785599;30;20059;-81
2022/01/21 11:52:14;;;;;;;22.50;4.03;;;7.80;99.90;;;;;;4800813;29;20043;-80
2022/01/21 11:54:40;;;;;;;22.13;3.72;;;8.20;99.90;;;;;;4785822;30;20051;-81
2022/01/21 11:57:07;;;;;;;22.17;3.92;;;9.20;99.90;;;;;;4784254;29;20100;-77
2022/01/21 11:59:35;;;;;;;24.05;3.25;;;8.30;99.90;;;;;;4785904;29;20055;-83
2022/01/21 12:02:23;;;;;;;18.88;3.28;;;8.50;99.90;;;;;;4800738;29;20130;-83
2022/01/21 12:04:53;;;;;;;16.90;2.67;;;7.70;99.90;;;;;;4777584;30;20062;-82
2022/01/21 12:07:34;;;;;;;20.33;4.05;;;7.90;99.90;;;;;;4800508;29;20056;-81
2022/01/21 12:10:06;;;;;;;18.27;3.45;;;9.20;99.90;;;;;;4773786;30;20087;-81
2022/01/21 12:12:45;;;;;;;17.48;3.05;;;8.00;99.90;;;;;;4798919;29;20522;-81
2022/01/21 12:15:22;;;;;;;22.30;3.90;;;7.90;99.90;;;;;;4773227;30;20055;-80
2022/01/21 12:17:53;;;;;;;25.98;3.33;;;8.10;99.90;;;;;;4778766;30;20062;-79
2022/01/21 12:20:31;;;;;;;17.60;2.80;;;8.80;99.90;;;;;;4790536;29;20102;-81
2022/01/21 12:23:16;;;;;;;17.75;2.80;;;7.50;99.90;;;;;;4760019;30;20066;-82
2022/01/21 12:26:11;;;;;;;16.48;2.47;;;7.80;99.90;;;;;;4781543;29;20095;-83
2022/01/21 12:28:42;;;;;;;18.85;2.80;;;7.40;99.90;;;;;;4785365;30;20051;-81
2022/01/21 12:31:09;;;;;;;13.15;3.25;;;8.90;99.90;;;;;;4788457;30;20048;-82
2022/01/21 12:33:56;;;;;;;24.52;3.42;;;8.00;99.90;;;;;;4778403;30;20074;-81
2022/01/21 12:36:27;;;;;;;24.63;3.40;;;7.30;99.90;;;;;;4788644;29;20130;-81
2022/01/21 12:41:28;;;;;;;17.77;2.88;;;7.80;99.90;;;;;;4787276;30;20130;-79
2022/01/21 12:43:56;;;;;;;28.13;3.80;;;9.30;99.90;;;;;;4788441;30;20407;-80
2022/01/21 12:46:23;;;;;;;23.58;3.10;;;9.50;99.90;;;;;;4786065;30;20138;-82
2022/01/21 12:48:50;;;;;;;14.93;2.88;;;7.80;99.90;;;;;;4784715;30;20069;-83
2022/01/21 12:56:48;;;;;;;22.60;3.83;;;7.40;99.90;;;;;;4784024;30;20091;-81
2022/01/21 12:59:22;;;;;;;30.60;3.67;;;8.00;99.90;;;;;;4777897;30;20702;-79
2022/01/21 13:01:49;;;;;;;19.90;3.63;;;7.50;99.90;;;;;;4780311;30;20104;-79
2022/01/21 13:04:44;;;;;;;24.98;3.78;;;8.00;99.90;;;;;;4792318;29;20055;-78
2022/01/21 13:07:26;;;;;;;28.00;3.40;;;7.30;99.90;;;;;;4785853;30;20116;-80
2022/01/21 13:10:03;;;;;;;24.85;3.10;;;8.00;99.90;;;;;;4773291;30;20063;-80
2022/01/21 13:12:47;;;;;;;28.83;3.63;;;7.70;99.90;;;;;;4786346;30;20051;-79
2022/01/21 13:15:13;;;;;;;30.45;3.10;;;7.60;99.90;;;;;;4784003;30;20051;-78
2022/01/21 13:17:39;;;;;;;24.38;4.05;;;8.40;99.90;;;;;;4777120;30;20047;-79
2022/01/21 13:20:05;;;;;;;26.50;3.80;;;7.40;99.90;;;;;;4787316;30;20408;-79
2022/01/21 13:22:36;;;;;;;29.92;3.88;;;7.40;99.90;;;;;;4787294;29;20050;-83
2022/01/21 13:25:15;;;;;;;22.77;3.60;;;7.60;99.90;;;;;;4781277;30;20062;-80
2022/01/21 13:27:47;;;;;;;19.02;3.13;;;8.10;99.90;;;;;;4781893;30;20060;-80
2022/01/21 13:30:16;;;;;;;16.45;3.38;;;9.10;99.90;;;;;;4769932;30;20064;-80
2022/01/21 13:32:42;;;;;;;21.88;4.22;;;7.70;99.90;;;;;;4784947;29;20177;-80
2022/01/21 13:35:11;;;;;;;26.70;3.60;;;9.80;99.90;;;;;;4800586;29;20484;-80
2022/01/21 13:37:39;;;;;;;20.98;3.42;;;7.50;99.90;;;;;;4784963;29;20409;-80
2022/01/21 13:40:08;;;;;;;29.00;3.67;;;8.60;99.90;;;;;;4779578;30;20047;-79
2022/01/21 13:42:35;;;;;;;16.77;2.97;;;7.50;99.90;;;;;;4802111;29;20055;-81
2022/01/21 13:45:05;;;;;;;20.02;3.35;;;8.20;99.90;;;;;;4776223;30;20051;-84